Time;durP1;ratioP1;P1;durP2;ratioP2;P2;SDS_P1;SDS_P2;PMS_P1;PMS_P2;Temp;Humidity;BMP_temperature;BMP_pressure;BME280_temperature;BME280_humidity;BME280_pressure;Samples;Min_cycle;Max_cycle;Signal;HPM_P1;HPM_P2
2023/04/17 00:00:09;;;;;;;10.68;5.53;;;12.30;96.90;;;;;;5017786;28;20033;-87
2023/04/17 00:02:38;;;;;;;10.40;5.90;;;12.30;96.90;;;;;;5039476;28;20029;-87
2023/04/17 00:05:07;;;;;;;11.73;5.70;;;12.30;96.90;;;;;;5006733;28;20028;-87
2023/04/17 00:07:40;;;;;;;11.17;5.40;;;12.30;96.90;;;;;;4995960;28;20310;-86
2023/04/17 00:10:07;;;;;;;10.75;5.68;;;12.40;96.90;;;;;;5036104;28;20033;-87
2023/04/17 00:12:33;;;;;;;10.18;5.43;;;12.40;96.90;;;;;;5028541;28;20557;-87
2023/04/17 00:14:59;;;;;;;12.90;5.75;;;12.40;96.90;;;;;;5032513;28;20052;-87
2023/04/17 00:17:25;;;;;;;11.57;5.77;;;12.40;96.90;;;;;;5015544;28;20112;-87
2023/04/17 00:19:51;;;;;;;11.05;5.45;;;12.30;96.90;;;;;;5040445;28;20025;-87
2023/04/17 00:22:16;;;;;;;11.10;5.75;;;12.40;97.00;;;;;;4993850;28;20021;-88
2023/04/17 00:24:42;;;;;;;12.20;5.90;;;12.40;97.00;;;;;;5016342;28;20020;-87
2023/04/17 00:27:08;;;;;;;12.13;6.25;;;12.30;97.00;;;;;;5009698;28;20156;-87
2023/04/17 00:29:36;;;;;;;11.30;5.50;;;12.40;97.00;;;;;;5011460;28;20036;-87
2023/04/17 00:32:02;;;;;;;14.32;6.03;;;12.30;97.00;;;;;;4999872;28;20033;-87
2023/04/17 00:34:28;;;;;;;13.02;6.43;;;12.40;97.00;;;;;;4998408;28;20028;-87
2023/04/17 00:36:54;;;;;;;11.70;5.47;;;12.40;97.00;;;;;;5022698;28;20755;-87
2023/04/17 00:39:20;;;;;;;11.07;5.65;;;12.40;97.00;;;;;;5014751;28;20036;-88
2023/04/17 00:41:45;;;;;;;13.77;6.20;;;12.30;97.00;;;;;;5019256;28;20021;-87
2023/04/17 00:44:11;;;;;;;12.23;5.83;;;12.40;97.10;;;;;;5014553;28;20078;-88
2023/04/17 00:46:37;;;;;;;14.52;6.43;;;12.40;97.10;;;;;;4996312;28;21132;-87
2023/04/17 00:49:03;;;;;;;11.10;5.63;;;12.40;97.10;;;;;;5002048;28;20072;-87
2023/04/17 00:51:30;;;;;;;13.82;6.53;;;12.40;97.10;;;;;;5019458;28;20453;-88
2023/04/17 00:53:57;;;;;;;13.32;6.60;;;12.30;97.00;;;;;;5022333;28;20485;-86
2023/04/17 00:56:23;;;;;;;12.90;6.53;;;12.30;97.00;;;;;;5000297;28;20117;-88
2023/04/17 00:58:49;;;;;;;11.10;6.23;;;12.40;97.10;;;;;;4998144;28;20462;-87
2023/04/17 01:01:16;;;;;;;14.20;6.25;;;12.30;97.00;;;;;;5018146;28;20157;-88
2023/04/17 01:03:42;;;;;;;12.82;5.95;;;12.30;97.00;;;;;;4991942;28;20123;-88
2023/04/17 01:06:09;;;;;;;12.40;6.35;;;12.30;97.10;;;;;;5021107;28;20999;-87
2023/04/17 01:08:42;;;;;;;13.20;6.30;;;12.30;97.10;;;;;;5000299;28;20315;-86
2023/04/17 01:11:09;;;;;;;11.67;6.00;;;12.30;97.10;;;;;;5015500;28;20526;-88
2023/04/17 01:13:44;;;;;;;13.05;6.07;;;12.30;97.10;;;;;;5023840;28;20924;-87
2023/04/17 01:16:10;;;;;;;12.75;6.30;;;12.30;97.10;;;;;;5037817;28;20052;-87
2023/04/17 01:18:36;;;;;;;12.48;5.78;;;12.30;97.10;;;;;;4994972;28;20406;-87
2023/04/17 01:21:02;;;;;;;12.70;6.23;;;12.30;97.10;;;;;;5034543;28;20028;-87
2023/04/17 01:23:28;;;;;;;12.05;6.30;;;12.30;97.10;;;;;;5004420;28;20546;-86
2023/04/17 01:25:54;;;;;;;15.18;6.72;;;12.30;97.20;;;;;;5025634;28;20418;-87
2023/04/17 01:28:20;;;;;;;13.80;6.63;;;12.30;97.20;;;;;;4995216;28;20036;-88
2023/04/17 01:30:46;;;;;;;14.20;6.50;;;12.30;97.20;;;;;;5016890;28;20045;-86
2023/04/17 01:33:11;;;;;;;13.33;6.07;;;12.30;97.20;;;;;;5036007;28;20107;-88
2023/04/17 01:35:37;;;;;;;13.27;6.68;;;12.30;97.20;;;;;;5011593;28;20208;-87
2023/04/17 01:38:02;;;;;;;12.90;6.47;;;12.30;97.20;;;;;;5036390;28;20040;-87
2023/04/17 01:40:28;;;;;;;13.15;6.57;;;12.30;97.20;;;;;;4992381;28;20143;-88
2023/04/17 01:42:54;;;;;;;13.33;6.53;;;12.30;97.20;;;;;;5002603;28;20466;-88
2023/04/17 01:45:20;;;;;;;12.77;6.20;;;12.30;97.20;;;;;;4995926;28;20020;-87
2023/04/17 01:47:46;;;;;;;14.68;6.15;;;12.20;97.20;;;;;;5005936;28;20719;-86
2023/04/17 01:50:12;;;;;;;13.70;6.78;;;12.20;97.20;;;;;;5025424;28;20193;-87
2023/04/17 01:52:38;;;;;;;14.63;6.35;;;12.30;97.30;;;;;;5002946;28;20693;-87
2023/04/17 01:55:04;;;;;;;12.32;6.10;;;12.20;97.30;;;;;;5001060;28;20453;-87
2023/04/17 01:57:32;;;;;;;13.10;6.93;;;12.20;97.30;;;;;;5000653;28;20473;-87
2023/04/17 01:59:57;;;;;;;14.07;6.53;;;12.20;97.30;;;;;;5032831;28;20480;-88
2023/04/17 02:02:23;;;;;;;14.25;6.80;;;12.20;97.30;;;;;;4995953;28;20099;-88
2023/04/17 02:04:49;;;;;;;14.40;6.67;;;12.20;97.30;;;;;;4986818;28;20017;-87
2023/04/17 02:07:15;;;;;;;14.05;6.68;;;12.20;97.30;;;;;;5011460;28;20025;-87
2023/04/17 02:09:41;;;;;;;16.07;6.63;;;12.20;97.30;;;;;;4995483;28;20032;-87
2023/04/17 02:12:06;;;;;;;15.30;6.80;;;12.20;97.30;;;;;;5034408;28;20033;-87
2023/04/17 02:14:32;;;;;;;12.97;6.33;;;12.20;97.30;;;;;;4985326;28;20059;-87
2023/04/17 02:16:58;;;;;;;14.88;7.07;;;12.20;97.30;;;;;;5006731;28;20619;-86
2023/04/17 02:19:23;;;;;;;15.90;7.13;;;12.20;97.30;;;;;;5037037;28;20025;-88
2023/04/17 02:21:49;;;;;;;14.20;6.65;;;12.10;97.20;;;;;;4991596;28;20824;-87
2023/04/17 02:24:15;;;;;;;13.13;6.17;;;12.10;97.30;;;;;;5016546;28;20142;-87
2023/04/17 02:26:40;;;;;;;12.40;6.13;;;12.10;97.30;;;;;;5035838;28;20649;-88
2023/04/17 02:29:06;;;;;;;14.30;6.60;;;12.10;97.30;;;;;;4994752;28;20155;-86
2023/04/17 02:31:32;;;;;;;14.90;6.23;;;12.10;97.30;;;;;;5032641;28;20275;-87
2023/04/17 02:33:57;;;;;;;15.50;6.67;;;12.10;97.30;;;;;;5009431;28;20036;-87
2023/04/17 02:36:23;;;;;;;14.40;7.00;;;12.10;97.30;;;;;;5018658;28;20466;-87
2023/04/17 02:38:49;;;;;;;16.17;7.27;;;12.10;97.40;;;;;;5009751;28;20087;-87
2023/04/17 02:41:15;;;;;;;13.45;6.32;;;12.10;97.30;;;;;;5021166;28;20032;-87
2023/04/17 02:43:40;;;;;;;13.83;6.90;;;12.10;97.30;;;;;;4997701;28;20502;-87
2023/04/17 02:46:06;;;;;;;12.95;6.47;;;12.10;97.40;;;;;;5021891;28;20621;-87
2023/04/17 02:48:32;;;;;;;15.17;6.60;;;12.10;97.40;;;;;;5029491;28;20489;-88
2023/04/17 02:50:57;;;;;;;12.95;6.10;;;12.00;97.40;;;;;;5034524;28;20506;-87
2023/04/17 02:53:23;;;;;;;15.77;6.87;;;12.00;97.40;;;;;;5014695;28;20507;-88
2023/04/17 02:55:49;;;;;;;14.80;6.30;;;12.00;97.40;;;;;;5040781;28;20013;-87
2023/04/17 02:58:14;;;;;;;14.83;6.50;;;12.00;97.40;;;;;;4989749;28;20100;-87
2023/04/17 03:00:40;;;;;;;13.90;6.93;;;12.00;97.50;;;;;;5035360;28;20510;-87
2023/04/17 03:03:06;;;;;;;14.63;6.60;;;12.00;97.40;;;;;;5023096;28;20703;-86
2023/04/17 03:05:32;;;;;;;15.30;6.60;;;12.00;97.40;;;;;;5032337;28;20031;-87
2023/04/17 03:07:58;;;;;;;13.57;7.13;;;12.00;97.40;;;;;;5013767;28;20437;-86
2023/04/17 03:10:24;;;;;;;14.63;6.43;;;12.00;97.50;;;;;;5046212;28;20217;-87
2023/04/17 03:12:49;;;;;;;16.05;7.18;;;11.90;97.50;;;;;;5002690;28;20215;-87
2023/04/17 03:15:16;;;;;;;13.67;6.60;;;11.90;97.50;;;;;;5006765;28;20032;-86
2023/04/17 03:17:41;;;;;;;16.27;8.00;;;11.90;97.50;;;;;;5020317;28;20104;-87
2023/04/17 03:20:08;;;;;;;14.93;7.05;;;11.90;97.50;;;;;;5018594;28;20937;-88
2023/04/17 03:22:33;;;;;;;15.38;6.95;;;11.90;97.50;;;;;;5019776;28;20018;-88
2023/04/17 03:24:59;;;;;;;13.97;7.23;;;11.90;97.50;;;;;;5028555;28;20435;-86
2023/04/17 03:27:25;;;;;;;14.30;6.97;;;11.90;97.50;;;;;;5023690;28;20438;-87
2023/04/17 03:29:53;;;;;;;14.00;6.80;;;11.90;97.50;;;;;;4994686;28;20045;-85
2023/04/17 03:32:19;;;;;;;13.13;6.55;;;11.80;97.50;;;;;;5018799;28;20033;-87
2023/04/17 03:34:44;;;;;;;12.88;6.78;;;11.80;97.50;;;;;;5020045;28;20025;-86
2023/04/17 03:37:10;;;;;;;13.43;6.77;;;11.80;97.50;;;;;;5009928;28;20119;-85
2023/04/17 03:39:36;;;;;;;14.48;6.38;;;11.80;97.50;;;;;;4996054;28;20029;-87
2023/04/17 03:42:02;;;;;;;12.83;6.37;;;11.80;97.50;;;;;;5000118;28;20095;-85
2023/04/17 03:44:27;;;;;;;12.68;6.40;;;11.80;97.50;;;;;;4981562;28;20049;-85
2023/04/17 03:46:53;;;;;;;13.60;6.20;;;11.70;97.60;;;;;;5018564;28;20060;-86
2023/04/17 03:49:19;;;;;;;11.85;6.53;;;11.70;97.60;;;;;;5024357;28;20025;-86
2023/04/17 03:51:45;;;;;;;11.07;5.80;;;11.70;97.60;;;;;;4994758;28;20033;-87
2023/04/17 03:54:10;;;;;;;11.35;6.10;;;11.70;97.60;;;;;;5018281;28;20112;-87
2023/04/17 03:56:36;;;;;;;12.83;6.57;;;11.70;97.70;;;;;;5008025;28;20069;-87
2023/04/17 03:59:03;;;;;;;13.30;5.95;;;11.70;97.70;;;;;;5015795;28;20033;-86
2023/04/17 04:01:31;;;;;;;12.98;6.15;;;11.70;97.70;;;;;;5001329;28;20028;-88
2023/04/17 04:03:57;;;;;;;12.98;6.30;;;11.70;97.80;;;;;;5017530;28;20625;-87
2023/04/17 04:06:23;;;;;;;12.90;6.27;;;11.70;97.70;;;;;;5016768;28;20096;-87
2023/04/17 04:08:49;;;;;;;12.98;6.38;;;11.70;97.70;;;;;;5010139;28;20025;-87
2023/04/17 04:11:15;;;;;;;14.48;7.40;;;11.70;97.70;;;;;;5013381;28;20030;-87
2023/04/17 04:13:41;;;;;;;14.80;6.70;;;11.80;97.80;;;;;;5018777;28;20040;-87
2023/04/17 04:16:07;;;;;;;14.80;7.30;;;11.70;97.70;;;;;;4996006;28;21377;-87
2023/04/17 04:18:34;;;;;;;15.45;7.07;;;11.80;97.80;;;;;;5035986;28;20124;-87
2023/04/17 04:20:59;;;;;;;13.88;6.95;;;11.70;97.80;;;;;;5013385;28;20255;-87
2023/04/17 04:23:26;;;;;;;14.13;6.70;;;11.80;97.80;;;;;;5022899;28;20037;-87
2023/04/17 04:25:55;;;;;;;14.15;7.07;;;11.80;97.80;;;;;;5000582;28;20223;-87
2023/04/17 04:28:22;;;;;;;17.55;7.03;;;11.70;97.80;;;;;;5020615;28;20033;-87
2023/04/17 04:30:49;;;;;;;14.50;6.88;;;11.70;97.80;;;;;;4995269;28;20042;-87
2023/04/17 04:33:20;;;;;;;14.93;6.60;;;11.70;97.80;;;;;;5019705;28;20029;-86
2023/04/17 04:35:47;;;;;;;14.30;6.85;;;11.70;97.80;;;;;;4998463;28;20060;-87
2023/04/17 04:38:14;;;;;;;14.45;6.78;;;11.70;97.80;;;;;;5003861;28;20029;-87
2023/04/17 04:40:42;;;;;;;13.75;6.88;;;11.70;97.90;;;;;;5009922;28;20021;-88
2023/04/17 04:43:11;;;;;;;14.32;6.97;;;11.70;97.90;;;;;;4998734;28;20018;-87
2023/04/17 04:45:37;;;;;;;13.63;6.83;;;11.70;97.90;;;;;;4989949;28;20021;-86
2023/04/17 04:48:02;;;;;;;13.88;6.80;;;11.70;97.90;;;;;;4991412;28;20288;-86
2023/04/17 04:50:28;;;;;;;12.87;6.53;;;11.70;97.90;;;;;;5021691;28;20410;-86
2023/04/17 04:52:54;;;;;;;12.52;7.20;;;11.70;97.90;;;;;;5006464;28;20044;-88
2023/04/17 04:55:20;;;;;;;12.73;6.60;;;11.70;97.90;;;;;;5005154;28;20053;-87
2023/04/17 04:57:46;;;;;;;12.63;6.57;;;11.70;97.80;;;;;;5008025;28;20054;-87
2023/04/17 05:00:12;;;;;;;11.77;6.35;;;11.70;97.90;;;;;;4996318;28;20026;-86
2023/04/17 05:02:38;;;;;;;12.45;6.47;;;11.70;97.90;;;;;;4983570;28;20108;-87
2023/04/17 05:05:06;;;;;;;14.37;6.73;;;11.70;97.90;;;;;;4997096;28;20033;-87
2023/04/17 05:07:32;;;;;;;13.05;6.32;;;11.70;97.90;;;;;;5001678;28;20029;-87
2023/04/17 05:09:58;;;;;;;11.83;6.17;;;11.70;97.90;;;;;;4992681;28;20033;-86
2023/04/17 05:12:23;;;;;;;12.65;6.53;;;11.70;98.00;;;;;;4990564;28;20021;-85
2023/04/17 05:14:49;;;;;;;10.87;5.60;;;11.60;98.00;;;;;;5010121;28;20197;-87
2023/04/17 05:17:15;;;;;;;12.55;6.28;;;11.60;98.30;;;;;;4969521;28;21264;-87
2023/04/17 05:19:40;;;;;;;11.67;6.23;;;11.70;98.00;;;;;;5014073;28;20109;-85
2023/04/17 05:22:06;;;;;;;12.30;6.15;;;11.70;98.00;;;;;;4992987;28;20029;-87
2023/04/17 05:24:32;;;;;;;11.10;5.83;;;11.60;98.00;;;;;;4984962;28;20021;-86
2023/04/17 05:26:58;;;;;;;12.43;5.75;;;11.60;98.00;;;;;;5005281;28;21137;-87
2023/04/17 05:29:24;;;;;;;11.73;5.63;;;11.60;98.00;;;;;;4987046;28;20268;-86
2023/04/17 05:31:50;;;;;;;11.13;6.00;;;11.70;98.10;;;;;;4978140;28;20034;-86
2023/04/17 05:34:16;;;;;;;11.02;5.80;;;11.70;98.10;;;;;;4957934;28;20030;-87
2023/04/17 05:36:41;;;;;;;11.18;6.22;;;11.70;98.10;;;;;;4998676;28;20037;-86
2023/04/17 05:39:07;;;;;;;11.47;5.53;;;11.70;98.10;;;;;;4981870;28;20026;-87
2023/04/17 05:41:33;;;;;;;11.83;6.03;;;11.70;98.20;;;;;;4982619;28;20029;-85
2023/04/17 05:43:58;;;;;;;11.57;6.05;;;11.80;98.20;;;;;;4989462;28;20056;-87
2023/04/17 05:46:24;;;;;;;12.57;6.43;;;11.80;98.20;;;;;;4972656;28;20034;-87
2023/04/17 05:48:50;;;;;;;13.53;6.57;;;11.80;98.20;;;;;;4977842;28;20296;-85
2023/04/17 05:51:16;;;;;;;11.98;5.82;;;11.80;98.30;;;;;;4991909;28;20259;-87
2023/04/17 05:53:43;;;;;;;12.53;6.70;;;11.80;98.20;;;;;;4981484;28;20021;-84
2023/04/17 05:56:10;;;;;;;12.80;6.50;;;11.80;98.10;;;;;;4976237;28;20022;-88
2023/04/17 05:58:36;;;;;;;12.23;6.10;;;11.80;98.10;;;;;;4978088;28;20289;-85
2023/04/17 06:01:04;;;;;;;14.00;7.17;;;11.80;98.00;;;;;;4981615;28;20113;-85
2023/04/17 06:03:33;;;;;;;12.00;6.07;;;11.80;98.00;;;;;;4953930;28;20443;-85
2023/04/17 06:05:59;;;;;;;12.30;6.15;;;11.80;97.90;;;;;;4965831;28;20030;-85
2023/04/17 06:08:26;;;;;;;12.85;6.32;;;11.80;97.90;;;;;;4975879;28;20061;-86
2023/04/17 06:10:52;;;;;;;11.83;5.90;;;11.80;98.00;;;;;;4947553;28;20030;-86
2023/04/17 06:13:18;;;;;;;10.73;5.65;;;11.80;98.00;;;;;;4984013;28;20523;-87
2023/04/17 06:15:44;;;;;;;13.63;6.75;;;11.80;98.00;;;;;;4969111;28;20354;-87
2023/04/17 06:18:09;;;;;;;11.83;5.80;;;11.80;98.00;;;;;;4977574;28;20496;-86
2023/04/17 06:20:35;;;;;;;12.07;5.90;;;11.80;98.10;;;;;;4966688;28;20424;-85
2023/04/17 06:23:01;;;;;;;10.97;5.53;;;11.80;98.10;;;;;;5000584;28;20057;-86
2023/04/17 06:25:27;;;;;;;11.07;5.63;;;11.80;98.10;;;;;;4985619;28;20522;-86
2023/04/17 06:27:52;;;;;;;11.37;5.97;;;11.80;98.20;;;;;;4971460;28;20175;-87
2023/04/17 06:30:18;;;;;;;11.40;5.63;;;11.80;98.20;;;;;;4995044;28;20423;-85
2023/04/17 06:32:44;;;;;;;11.03;5.70;;;11.80;98.20;;;;;;5001833;28;20299;-87
2023/04/17 06:35:10;;;;;;;11.70;5.88;;;11.80;98.20;;;;;;4988916;28;20025;-87
2023/04/17 06:37:36;;;;;;;11.38;5.97;;;11.80;98.20;;;;;;4993697;28;20130;-84
2023/04/17 06:40:02;;;;;;;13.07;6.83;;;11.90;98.20;;;;;;5011361;28;20021;-86
2023/04/17 06:42:28;;;;;;;12.77;6.22;;;11.90;98.10;;;;;;4978041;28;20033;-86
2023/04/17 06:44:55;;;;;;;13.05;6.95;;;11.90;98.10;;;;;;4997408;28;20395;-86
2023/04/17 06:47:20;;;;;;;13.57;7.27;;;11.90;98.10;;;;;;4985102;28;20040;-85
2023/04/17 06:49:46;;;;;;;14.07;7.13;;;11.90;98.40;;;;;;5011102;28;20222;-86
2023/04/17 06:52:12;;;;;;;12.55;6.65;;;11.80;98.10;;;;;;4998249;28;20406;-87
2023/04/17 06:54:38;;;;;;;12.67;6.80;;;11.80;98.10;;;;;;5016453;28;20703;-85
2023/04/17 06:57:05;;;;;;;12.00;6.20;;;11.80;98.10;;;;;;4979408;28;20605;-85
2023/04/17 06:59:31;;;;;;;10.48;5.97;;;11.80;98.50;;;;;;5001312;28;20025;-85
2023/04/17 07:01:57;;;;;;;13.05;6.32;;;11.80;98.20;;;;;;5005166;28;20080;-86
2023/04/17 07:04:23;;;;;;;12.57;6.27;;;11.80;98.10;;;;;;5012784;28;20602;-87
2023/04/17 07:06:49;;;;;;;12.80;7.15;;;11.80;98.10;;;;;;4976929;28;20434;-87
2023/04/17 07:09:15;;;;;;;11.65;6.10;;;11.80;98.10;;;;;;5020801;28;20037;-86
2023/04/17 07:11:41;;;;;;;11.07;6.17;;;11.80;98.10;;;;;;5001611;28;24160;-86
2023/04/17 07:14:06;;;;;;;11.93;6.03;;;11.80;98.20;;;;;;5013483;28;20025;-86
2023/04/17 07:16:32;;;;;;;10.20;5.47;;;11.90;98.40;;;;;;4981010;28;20080;-85
2023/04/17 07:18:58;;;;;;;10.35;5.32;;;11.90;98.50;;;;;;5017603;28;20032;-85
2023/04/17 07:21:25;;;;;;;9.32;5.25;;;11.90;98.50;;;;;;4997055;28;20026;-87
2023/04/17 07:23:51;;;;;;;9.63;5.23;;;12.00;98.60;;;;;;5014438;28;20590;-86
2023/04/17 07:26:17;;;;;;;10.23;5.35;;;12.00;98.60;;;;;;5019108;28;20079;-86
2023/04/17 07:28:42;;;;;;;10.93;6.17;;;12.10;98.60;;;;;;4996959;28;20515;-87
2023/04/17 07:31:08;;;;;;;10.30;5.65;;;12.10;98.60;;;;;;5016343;28;20020;-86
2023/04/17 07:33:35;;;;;;;10.20;5.50;;;12.10;98.60;;;;;;4993736;28;20191;-87
2023/04/17 07:36:02;;;;;;;11.60;6.30;;;12.20;98.60;;;;;;5020100;28;20115;-86
2023/04/17 07:38:33;;;;;;;12.15;6.55;;;12.20;98.60;;;;;;5002990;28;20049;-86
2023/04/17 07:40:59;;;;;;;11.95;6.82;;;12.30;98.60;;;;;;5038451;28;20021;-86
2023/04/17 07:43:26;;;;;;;12.25;6.50;;;12.30;98.60;;;;;;4995869;28;20025;-86
2023/04/17 07:45:51;;;;;;;13.82;7.20;;;12.30;98.60;;;;;;5000462;28;20021;-87
2023/04/17 07:48:18;;;;;;;15.57;8.40;;;12.30;98.50;;;;;;5020247;28;20543;-87
2023/04/17 07:50:44;;;;;;;13.27;7.20;;;12.30;98.40;;;;;;5032603;28;20169;-87
2023/04/17 07:53:10;;;;;;;13.68;7.78;;;12.40;98.40;;;;;;4987734;28;20081;-85
2023/04/17 07:55:36;;;;;;;13.60;7.25;;;12.30;98.40;;;;;;5033853;28;20234;-85
2023/04/17 07:58:05;;;;;;;14.90;7.43;;;12.40;98.40;;;;;;5018637;28;20029;-86
2023/04/17 08:00:32;;;;;;;14.90;7.50;;;12.40;98.40;;;;;;4998274;28;20025;-87
2023/04/17 08:02:58;;;;;;;11.25;6.13;;;12.40;98.50;;;;;;5008818;28;20210;-84
2023/04/17 08:05:24;;;;;;;12.33;7.00;;;12.40;98.60;;;;;;5023905;28;20037;-86
2023/04/17 08:07:49;;;;;;;14.02;7.18;;;12.40;98.90;;;;;;5017045;28;20116;-86
2023/04/17 08:10:15;;;;;;;12.63;6.60;;;12.50;98.60;;;;;;5004577;28;20044;-86
2023/04/17 08:12:41;;;;;;;12.23;6.97;;;12.50;98.60;;;;;;5037324;28;20033;-87
2023/04/17 08:15:07;;;;;;;14.43;7.37;;;12.50;98.60;;;;;;5011188;28;20028;-84
2023/04/17 08:17:33;;;;;;;12.45;6.75;;;12.50;98.70;;;;;;5011728;28;20325;-87
2023/04/17 08:20:09;;;;;;;13.15;6.97;;;12.50;98.70;;;;;;5010609;28;20078;-87
2023/04/17 08:22:43;;;;;;;14.05;7.32;;;12.60;98.80;;;;;;4996700;28;20021;-84
2023/04/17 08:25:09;;;;;;;15.15;7.72;;;12.70;98.70;;;;;;5002055;28;20059;-87
2023/04/17 08:27:36;;;;;;;13.27;7.20;;;12.70;98.70;;;;;;5036963;28;20033;-84
2023/04/17 08:30:03;;;;;;;14.40;7.22;;;12.80;98.70;;;;;;5019393;28;20049;-87
2023/04/17 08:32:29;;;;;;;15.82;7.80;;;12.80;98.70;;;;;;5000413;28;20127;-85
2023/04/17 08:34:57;;;;;;;15.55;7.85;;;12.80;98.60;;;;;;5010651;28;20131;-87
2023/04/17 08:37:23;;;;;;;15.18;7.93;;;12.80;98.60;;;;;;5026118;28;20236;-86
2023/04/17 08:39:51;;;;;;;15.27;7.93;;;12.80;98.70;;;;;;5002588;28;20021;-85
2023/04/17 08:42:17;;;;;;;16.10;8.27;;;12.90;98.60;;;;;;5023583;28;20272;-86
2023/04/17 08:44:43;;;;;;;14.90;7.83;;;12.90;98.50;;;;;;5021600;28;20017;-85
2023/04/17 08:47:08;;;;;;;15.82;8.38;;;12.90;98.40;;;;;;5016817;28;20030;-86
2023/04/17 08:49:35;;;;;;;13.80;7.33;;;12.90;98.20;;;;;;5037208;28;20033;-85
2023/04/17 08:52:04;;;;;;;15.10;7.95;;;12.80;98.30;;;;;;5004225;28;20026;-84
2023/04/17 08:54:33;;;;;;;17.48;9.13;;;12.90;98.30;;;;;;5014428;28;20999;-85
2023/04/17 08:57:03;;;;;;;14.55;8.30;;;12.80;98.30;;;;;;5008116;28;20017;-86
2023/04/17 08:59:30;;;;;;;14.85;8.00;;;12.80;98.20;;;;;;5018115;28;20636;-86
2023/04/17 09:02:04;;;;;;;16.30;8.23;;;12.80;98.30;;;;;;5007801;28;20082;-85
2023/04/17 09:04:38;;;;;;;14.55;7.72;;;12.80;98.20;;;;;;5002288;28;20194;-84
2023/04/17 09:07:12;;;;;;;14.85;7.72;;;12.80;98.20;;;;;;5017704;28;20550;-86
2023/04/17 09:09:54;;;;;;;17.08;7.95;;;12.80;98.20;;;;;;5007454;28;20021;-86
2023/04/17 09:12:23;;;;;;;15.60;8.70;;;12.80;98.00;;;;;;5003251;28;20106;-86
2023/04/17 09:14:49;;;;;;;15.73;8.03;;;12.80;98.40;;;;;;5008868;28;20055;-86
2023/04/17 09:17:16;;;;;;;15.63;7.55;;;12.80;98.50;;;;;;4986237;28;20033;-87
2023/04/17 09:20:06;;;;;;;16.00;8.38;;;12.80;98.70;;;;;;5013474;28;20017;-86
2023/04/17 09:22:33;;;;;;;13.95;7.32;;;12.90;98.50;;;;;;5021629;28;20663;-87
2023/04/17 09:24:59;;;;;;;15.18;8.55;;;13.00;99.10;;;;;;5018881;28;20048;-87
2023/04/17 09:27:26;;;;;;;15.20;8.17;;;13.00;99.10;;;;;;5018273;28;20626;-85
2023/04/17 09:29:56;;;;;;;14.65;8.85;;;13.10;99.10;;;;;;5007725;28;20417;-84
2023/04/17 09:32:21;;;;;;;15.05;7.95;;;13.20;98.90;;;;;;5014468;28;20684;-85
2023/04/17 09:34:47;;;;;;;17.10;8.88;;;13.30;99.10;;;;;;5022428;28;20328;-83
2023/04/17 09:37:13;;;;;;;17.50;9.77;;;13.40;99.00;;;;;;5009497;28;20033;-85
2023/04/17 09:39:54;;;;;;;18.63;10.20;;;13.50;98.90;;;;;;5033029;28;20128;-85
2023/04/17 09:42:20;;;;;;;17.83;9.83;;;13.60;98.50;;;;;;5017941;28;20360;-84
2023/04/17 09:44:45;;;;;;;15.57;8.85;;;13.60;98.80;;;;;;5018333;28;20186;-86
2023/04/17 09:47:12;;;;;;;14.70;8.07;;;13.60;98.80;;;;;;5012740;28;20043;-87
2023/04/17 09:49:41;;;;;;;15.25;7.82;;;13.60;98.70;;;;;;4992157;28;20389;-86
2023/04/17 09:52:07;;;;;;;16.80;8.98;;;13.70;98.70;;;;;;4992503;28;20410;-85
2023/04/17 09:54:37;;;;;;;18.10;9.75;;;13.70;98.60;;;;;;5034732;28;20040;-86
2023/04/17 09:57:07;;;;;;;16.38;8.93;;;13.70;98.50;;;;;;5011163;28;20399;-86
2023/04/17 09:59:40;;;;;;;14.97;8.53;;;13.70;98.50;;;;;;5036521;28;20017;-85
2023/04/17 10:02:11;;;;;;;15.07;8.25;;;13.80;98.30;;;;;;5037015;28;20028;-87
2023/04/17 10:04:40;;;;;;;14.18;7.95;;;13.80;98.70;;;;;;5005168;28;20031;-87
2023/04/17 10:07:06;;;;;;;15.77;8.65;;;13.90;98.70;;;;;;5010195;28;20628;-88
2023/04/17 10:09:32;;;;;;;13.50;7.93;;;14.00;98.80;;;;;;5005767;28;20422;-85
2023/04/17 10:12:00;;;;;;;14.37;7.93;;;14.10;98.80;;;;;;4997174;28;20036;-86
2023/04/17 10:14:32;;;;;;;14.38;8.45;;;14.10;98.80;;;;;;4993062;28;20302;-86
2023/04/17 10:16:57;;;;;;;12.90;7.25;;;14.20;98.80;;;;;;5036008;28;20036;-87
2023/04/17 10:19:29;;;;;;;13.83;7.57;;;14.40;99.30;;;;;;5019672;28;20241;-87
2023/04/17 10:22:14;;;;;;;15.15;8.70;;;14.50;99.40;;;;;;5010908;28;20024;-86
2023/04/17 10:24:47;;;;;;;17.35;9.38;;;14.60;98.30;;;;;;5020521;28;20021;-86
2023/04/17 10:27:29;;;;;;;16.33;8.73;;;14.80;99.40;;;;;;5003200;28;20049;-84
2023/04/17 10:29:56;;;;;;;14.73;8.30;;;14.90;98.60;;;;;;5001813;28;20139;-85
2023/04/17 10:32:24;;;;;;;16.15;8.20;;;15.10;99.70;;;;;;4992562;28;20119;-87
2023/04/17 10:34:58;;;;;;;16.48;9.35;;;15.30;99.90;;;;;;5004407;28;20025;-85
2023/04/17 10:37:46;;;;;;;15.63;8.70;;;15.60;99.60;;;;;;5011136;28;20515;-86
2023/04/17 10:40:19;;;;;;;16.30;9.07;;;15.70;98.00;;;;;;5032584;28;20329;-86
2023/04/17 10:43:19;;;;;;;15.05;8.55;;;15.90;98.60;;;;;;5035043;28;20024;-87
2023/04/17 10:46:08;;;;;;;17.35;8.82;;;16.00;97.00;;;;;;4968721;28;20465;-87
2023/04/17 10:48:51;;;;;;;15.25;8.80;;;15.90;96.50;;;;;;5026428;28;20259;-87
2023/04/17 10:51:40;;;;;;;15.23;9.10;;;15.90;96.70;;;;;;4985959;28;20123;-86
2023/04/17 10:54:09;;;;;;;15.43;8.83;;;15.90;96.50;;;;;;5008695;28;20499;-86
2023/04/17 10:56:44;;;;;;;14.25;8.68;;;15.80;97.60;;;;;;5038176;28;20025;-86
2023/04/17 10:59:15;;;;;;;14.85;8.93;;;15.90;96.90;;;;;;5022376;28;20244;-89
2023/04/17 11:01:46;;;;;;;16.45;8.50;;;15.90;97.30;;;;;;5022035;28;20493;-84
2023/04/17 11:04:29;;;;;;;15.38;8.77;;;16.00;98.20;;;;;;5006930;28;20194;-86
2023/04/17 11:06:55;;;;;;;14.83;8.67;;;16.20;98.40;;;;;;4984400;28;20017;-88
2023/04/17 11:09:23;;;;;;;15.30;8.80;;;16.40;99.10;;;;;;5014228;28;20262;-86
2023/04/17 11:11:49;;;;;;;14.43;8.73;;;16.60;98.20;;;;;;5019845;28;20031;-86
2023/04/17 11:14:17;;;;;;;15.38;8.93;;;16.70;97.90;;;;;;5005413;28;20029;-86
2023/04/17 11:16:45;;;;;;;13.97;8.60;;;16.70;97.00;;;;;;5005991;28;20505;-85
2023/04/17 11:19:16;;;;;;;15.52;9.25;;;16.70;96.70;;;;;;5002757;28;20033;-86
2023/04/17 11:21:43;;;;;;;14.02;8.70;;;16.60;96.40;;;;;;5010654;28;20032;-86
2023/04/17 11:24:09;;;;;;;15.70;9.38;;;16.60;96.70;;;;;;5028672;28;20338;-85
2023/04/17 11:26:45;;;;;;;14.43;9.13;;;16.70;97.50;;;;;;5037897;28;20049;-85
2023/04/17 11:29:15;;;;;;;14.87;8.53;;;16.80;97.60;;;;;;4995148;28;20055;-86
2023/04/17 11:31:41;;;;;;;13.73;8.60;;;17.00;98.60;;;;;;5002651;28;20478;-87
2023/04/17 11:34:08;;;;;;;12.65;8.30;;;17.30;99.90;;;;;;5037424;28;20021;-88
2023/04/17 11:36:34;;;;;;;15.50;8.57;;;17.60;99.90;;;;;;5007742;28;20119;-86
2023/04/17 11:39:01;;;;;;;12.98;8.73;;;18.00;98.80;;;;;;5025145;28;20048;-87
2023/04/17 11:41:37;;;;;;;16.53;8.90;;;18.10;97.90;;;;;;5015093;28;20095;-85
2023/04/17 11:44:03;;;;;;;14.30;9.10;;;18.30;96.60;;;;;;5018921;28;20128;-87
2023/04/17 11:46:29;;;;;;;12.33;8.13;;;18.30;97.20;;;;;;5016529;28;20090;-86
2023/04/17 11:48:55;;;;;;;12.55;8.43;;;18.40;96.30;;;;;;4995846;28;20025;-86
2023/04/17 11:51:21;;;;;;;14.98;9.75;;;18.30;95.70;;;;;;5020937;28;20124;-87
2023/04/17 11:53:49;;;;;;;15.57;9.20;;;18.20;94.90;;;;;;5028332;28;20450;-87
2023/04/17 11:56:19;;;;;;;14.80;8.98;;;18.10;94.60;;;;;;5010640;28;20052;-86
2023/04/17 11:58:45;;;;;;;14.32;8.65;;;17.90;93.80;;;;;;5022961;28;20453;-86
2023/04/17 12:01:14;;;;;;;14.23;8.63;;;17.70;94.00;;;;;;5036170;28;20035;-87
2023/04/17 12:03:40;;;;;;;14.00;8.53;;;17.60;93.70;;;;;;5020980;28;20029;-85
2023/04/17 12:06:05;;;;;;;12.70;7.82;;;17.40;94.00;;;;;;4990623;28;20032;-87
2023/04/17 12:08:40;;;;;;;13.35;8.07;;;17.20;94.00;;;;;;4994797;28;20563;-86
2023/04/17 12:11:06;;;;;;;13.20;7.90;;;17.20;93.30;;;;;;5012057;28;20077;-86
2023/04/17 12:13:34;;;;;;;13.98;8.02;;;17.10;94.30;;;;;;5001793;28;20775;-86
2023/04/17 12:16:00;;;;;;;13.75;8.35;;;17.00;94.60;;;;;;5005916;28;20025;-85
2023/04/17 12:18:25;;;;;;;14.13;8.70;;;17.00;94.80;;;;;;4997932;28;20155;-88
2023/04/17 12:20:51;;;;;;;13.73;8.80;;;17.10;95.10;;;;;;5021864;28;20064;-85
2023/04/17 12:23:17;;;;;;;13.07;8.20;;;17.20;95.20;;;;;;5015355;28;20036;-89
2023/04/17 12:25:42;;;;;;;13.07;8.10;;;17.30;95.10;;;;;;4996669;28;20828;-86
2023/04/17 12:28:08;;;;;;;11.43;7.13;;;17.40;95.30;;;;;;5041417;28;20064;-86
2023/04/17 12:30:34;;;;;;;13.13;7.80;;;17.50;95.70;;;;;;4995050;28;20053;-84
2023/04/17 12:33:00;;;;;;;11.88;7.60;;;17.70;96.00;;;;;;5016597;28;20535;-88
2023/04/17 12:35:26;;;;;;;12.63;8.10;;;17.90;95.70;;;;;;4988970;28;20627;-85